MARCH 05,2015

 

METAR SMJP 050800Z 23003KT 9999 FEW002 23/22 Q1011 NOSIG=

METAR SMZO 050800Z NIL=